Accueil
METAR-TAF:

METAR-TAF

Aéroports :

Noorvik, Alaska, États-Unis

latitude: 66-49-03N, longitude: 161-01-20W, altitude: 17 m

Observation

Le bulletin a été fait il y a 31 minutes, à 10:56 UTC
Vent 12 kt de nord-est avec des rafales jusqu'à 19 kt
Température -10°C
Humidité 48%
Pression 1013 hPa
Visibilité: 16.1 km
Ciel clair

METAR: PFNO 181056Z AUTO 04012G19KT 10SM CLR M10/M19 A2992 RMK AO2 SLP217 T11001194 FZRANO

Heure: 02:27 (11:27 UTC)


TAF: absent

Observations et prévisions météorologiques de plus de 4000 aéroports (messages METAR et TAF).

Les stations disponibles sont représentées par des disques jaunes et rouges sur la carte.

Passer la souris dessus pour voir le nom de la station.

Cliquer dessus pour voir les observations et prévisions météorologiques.

Pour changer de carte: cliquez sur les boutons verts avec une croix noire pour zoomer, sur le bouton vert avec un tiret pour effectuer un zoom arrière, ou sur les flèches vertes pour les cartes adjacentes.


METAR-TAF: